sensor_id;sensor_type;location;lat;lon;timestamp;P1;durP1;ratioP1;P2;durP2;ratioP2
19221;SDS011;9745;50.828;4.378;2022-08-25T00:00:18;8.97;;;4.23;;
19221;SDS011;9745;50.828;4.378;2022-08-25T00:02:45;10.80;;;4.03;;
19221;SDS011;9745;50.828;4.378;2022-08-25T00:05:11;7.40;;;4.33;;
19221;SDS011;9745;50.828;4.378;2022-08-25T00:07:37;8.30;;;4.23;;
19221;SDS011;9745;50.828;4.378;2022-08-25T00:10:03;10.93;;;4.73;;
19221;SDS011;9745;50.828;4.378;2022-08-25T00:12:30;6.00;;;4.17;;
19221;SDS011;9745;50.828;4.378;2022-08-25T00:14:56;9.10;;;4.90;;
19221;SDS011;9745;50.828;4.378;2022-08-25T00:17:22;7.23;;;4.90;;
19221;SDS011;9745;50.828;4.378;2022-08-25T00:19:49;7.50;;;4.57;;
19221;SDS011;9745;50.828;4.378;2022-08-25T00:22:15;8.67;;;4.70;;
19221;SDS011;9745;50.828;4.378;2022-08-25T00:24:41;6.23;;;4.60;;
19221;SDS011;9745;50.828;4.378;2022-08-25T00:27:07;8.10;;;5.10;;
19221;SDS011;9745;50.828;4.378;2022-08-25T00:29:36;6.37;;;4.73;;
19221;SDS011;9745;50.828;4.378;2022-08-25T00:32:03;6.17;;;4.77;;
19221;SDS011;9745;50.828;4.378;2022-08-25T00:34:33;7.67;;;5.03;;
19221;SDS011;9745;50.828;4.378;2022-08-25T00:37:00;9.83;;;4.57;;
19221;SDS011;9745;50.828;4.378;2022-08-25T00:39:26;7.33;;;4.50;;
19221;SDS011;9745;50.828;4.378;2022-08-25T00:41:53;7.40;;;5.33;;
19221;SDS011;9745;50.828;4.378;2022-08-25T00:44:21;6.87;;;4.90;;
19221;SDS011;9745;50.828;4.378;2022-08-25T00:46:49;6.73;;;4.40;;
19221;SDS011;9745;50.828;4.378;2022-08-25T00:49:19;8.03;;;5.23;;
19221;SDS011;9745;50.828;4.378;2022-08-25T00:51:47;6.93;;;4.73;;
19221;SDS011;9745;50.828;4.378;2022-08-25T00:54:16;8.73;;;5.30;;
19221;SDS011;9745;50.828;4.378;2022-08-25T00:56:43;9.07;;;5.27;;
19221;SDS011;9745;50.828;4.378;2022-08-25T00:59:09;8.80;;;5.03;;
19221;SDS011;9745;50.828;4.378;2022-08-25T01:01:35;8.67;;;5.37;;
19221;SDS011;9745;50.828;4.378;2022-08-25T01:04:02;8.50;;;4.97;;
19221;SDS011;9745;50.828;4.378;2022-08-25T01:06:28;5.23;;;4.57;;
19221;SDS011;9745;50.828;4.378;2022-08-25T01:08:57;8.63;;;5.80;;
19221;SDS011;9745;50.828;4.378;2022-08-25T01:11:23;12.80;;;5.47;;
19221;SDS011;9745;50.828;4.378;2022-08-25T01:13:51;7.13;;;5.77;;
19221;SDS011;9745;50.828;4.378;2022-08-25T01:16:18;7.57;;;5.43;;
19221;SDS011;9745;50.828;4.378;2022-08-25T01:18:48;8.10;;;5.33;;
19221;SDS011;9745;50.828;4.378;2022-08-25T01:21:15;8.87;;;5.00;;
19221;SDS011;9745;50.828;4.378;2022-08-25T01:23:42;10.50;;;5.90;;
19221;SDS011;9745;50.828;4.378;2022-08-25T01:26:10;9.23;;;6.00;;
19221;SDS011;9745;50.828;4.378;2022-08-25T01:28:37;7.93;;;4.93;;
19221;SDS011;9745;50.828;4.378;2022-08-25T01:31:24;8.80;;;6.07;;
19221;SDS011;9745;50.828;4.378;2022-08-25T01:33:50;8.53;;;5.87;;
19221;SDS011;9745;50.828;4.378;2022-08-25T01:36:17;8.67;;;6.00;;
19221;SDS011;9745;50.828;4.378;2022-08-25T01:38:43;6.80;;;5.30;;
19221;SDS011;9745;50.828;4.378;2022-08-25T01:41:09;6.57;;;5.97;;
19221;SDS011;9745;50.828;4.378;2022-08-25T01:43:36;10.43;;;5.80;;
19221;SDS011;9745;50.828;4.378;2022-08-25T01:46:03;8.77;;;5.70;;
19221;SDS011;9745;50.828;4.378;2022-08-25T01:48:29;9.03;;;5.57;;
19221;SDS011;9745;50.828;4.378;2022-08-25T01:50:56;8.73;;;5.63;;
19221;SDS011;9745;50.828;4.378;2022-08-25T01:53:25;7.20;;;5.33;;
19221;SDS011;9745;50.828;4.378;2022-08-25T01:55:52;8.87;;;5.80;;
19221;SDS011;9745;50.828;4.378;2022-08-25T01:58:29;9.60;;;5.80;;
19221;SDS011;9745;50.828;4.378;2022-08-25T02:00:57;9.20;;;5.53;;
19221;SDS011;9745;50.828;4.378;2022-08-25T02:03:24;6.47;;;5.10;;
19221;SDS011;9745;50.828;4.378;2022-08-25T02:05:51;8.83;;;5.50;;
19221;SDS011;9745;50.828;4.378;2022-08-25T02:08:17;7.90;;;5.53;;
19221;SDS011;9745;50.828;4.378;2022-08-25T02:10:44;5.23;;;4.50;;
19221;SDS011;9745;50.828;4.378;2022-08-25T02:13:10;8.03;;;6.03;;
19221;SDS011;9745;50.828;4.378;2022-08-25T02:15:44;6.40;;;5.70;;
19221;SDS011;9745;50.828;4.378;2022-08-25T02:18:11;9.90;;;5.60;;
19221;SDS011;9745;50.828;4.378;2022-08-25T02:20:37;7.63;;;5.53;;
19221;SDS011;9745;50.828;4.378;2022-08-25T02:23:03;7.07;;;5.20;;
19221;SDS011;9745;50.828;4.378;2022-08-25T02:25:30;8.33;;;6.37;;
19221;SDS011;9745;50.828;4.378;2022-08-25T02:27:56;7.80;;;5.47;;
19221;SDS011;9745;50.828;4.378;2022-08-25T02:30:22;13.10;;;6.07;;
19221;SDS011;9745;50.828;4.378;2022-08-25T02:32:48;9.40;;;5.73;;
19221;SDS011;9745;50.828;4.378;2022-08-25T02:35:15;9.87;;;6.10;;
19221;SDS011;9745;50.828;4.378;2022-08-25T02:37:41;8.00;;;5.30;;
19221;SDS011;9745;50.828;4.378;2022-08-25T02:40:07;7.17;;;5.87;;
19221;SDS011;9745;50.828;4.378;2022-08-25T02:42:33;7.27;;;5.90;;
19221;SDS011;9745;50.828;4.378;2022-08-25T02:44:59;7.13;;;5.40;;
19221;SDS011;9745;50.828;4.378;2022-08-25T02:47:25;8.67;;;5.50;;
19221;SDS011;9745;50.828;4.378;2022-08-25T02:49:52;7.73;;;5.43;;
19221;SDS011;9745;50.828;4.378;2022-08-25T02:52:18;10.63;;;5.30;;
19221;SDS011;9745;50.828;4.378;2022-08-25T02:54:44;9.27;;;5.47;;
19221;SDS011;9745;50.828;4.378;2022-08-25T02:57:10;6.60;;;5.60;;
19221;SDS011;9745;50.828;4.378;2022-08-25T02:59:38;7.53;;;5.83;;
19221;SDS011;9745;50.828;4.378;2022-08-25T03:02:04;8.00;;;5.57;;
19221;SDS011;9745;50.828;4.378;2022-08-25T03:04:30;5.93;;;5.23;;
19221;SDS011;9745;50.828;4.378;2022-08-25T03:06:57;9.10;;;5.20;;
19221;SDS011;9745;50.828;4.378;2022-08-25T03:09:23;6.90;;;4.73;;
19221;SDS011;9745;50.828;4.378;2022-08-25T03:11:49;11.40;;;4.60;;
19221;SDS011;9745;50.828;4.378;2022-08-25T03:14:15;8.10;;;3.87;;
19221;SDS011;9745;50.828;4.378;2022-08-25T03:16:41;8.83;;;4.47;;
19221;SDS011;9745;50.828;4.378;2022-08-25T03:19:08;7.03;;;3.67;;
19221;SDS011;9745;50.828;4.378;2022-08-25T03:21:35;5.50;;;3.83;;
19221;SDS011;9745;50.828;4.378;2022-08-25T03:24:02;5.83;;;3.63;;
19221;SDS011;9745;50.828;4.378;2022-08-25T03:26:28;5.90;;;3.47;;
19221;SDS011;9745;50.828;4.378;2022-08-25T03:29:13;6.43;;;3.97;;
19221;SDS011;9745;50.828;4.378;2022-08-25T03:31:40;9.03;;;3.80;;
19221;SDS011;9745;50.828;4.378;2022-08-25T03:34:08;9.23;;;3.60;;
19221;SDS011;9745;50.828;4.378;2022-08-25T03:36:34;4.90;;;3.43;;
19221;SDS011;9745;50.828;4.378;2022-08-25T03:39:01;4.97;;;3.37;;
19221;SDS011;9745;50.828;4.378;2022-08-25T03:41:28;3.87;;;3.30;;
19221;SDS011;9745;50.828;4.378;2022-08-25T03:43:56;6.10;;;3.70;;
19221;SDS011;9745;50.828;4.378;2022-08-25T03:46:30;3.50;;;3.20;;
19221;SDS011;9745;50.828;4.378;2022-08-25T03:48:58;6.27;;;3.33;;
19221;SDS011;9745;50.828;4.378;2022-08-25T03:51:25;6.87;;;3.13;;
19221;SDS011;9745;50.828;4.378;2022-08-25T03:53:52;7.03;;;3.30;;
19221;SDS011;9745;50.828;4.378;2022-08-25T03:56:18;7.00;;;3.50;;
19221;SDS011;9745;50.828;4.378;2022-08-25T03:58:45;4.80;;;3.17;;
19221;SDS011;9745;50.828;4.378;2022-08-25T04:01:12;4.87;;;3.00;;
19221;SDS011;9745;50.828;4.378;2022-08-25T04:03:38;5.10;;;3.37;;
19221;SDS011;9745;50.828;4.378;2022-08-25T04:06:04;4.03;;;2.90;;
19221;SDS011;9745;50.828;4.378;2022-08-25T04:08:31;7.63;;;3.20;;
19221;SDS011;9745;50.828;4.378;2022-08-25T04:10:57;4.27;;;2.90;;
19221;SDS011;9745;50.828;4.378;2022-08-25T04:13:24;9.17;;;3.13;;
19221;SDS011;9745;50.828;4.378;2022-08-25T04:15:50;6.93;;;3.20;;
19221;SDS011;9745;50.828;4.378;2022-08-25T04:18:16;6.20;;;3.20;;
19221;SDS011;9745;50.828;4.378;2022-08-25T04:20:42;6.00;;;2.97;;
19221;SDS011;9745;50.828;4.378;2022-08-25T04:23:08;7.40;;;3.63;;
19221;SDS011;9745;50.828;4.378;2022-08-25T04:25:38;7.67;;;3.47;;
19221;SDS011;9745;50.828;4.378;2022-08-25T04:28:06;7.27;;;3.90;;
19221;SDS011;9745;50.828;4.378;2022-08-25T04:30:33;10.90;;;3.90;;
19221;SDS011;9745;50.828;4.378;2022-08-25T04:32:59;11.47;;;4.30;;
19221;SDS011;9745;50.828;4.378;2022-08-25T04:35:25;9.17;;;4.20;;
19221;SDS011;9745;50.828;4.378;2022-08-25T04:37:51;6.13;;;4.00;;
19221;SDS011;9745;50.828;4.378;2022-08-25T04:40:17;13.20;;;3.97;;
19221;SDS011;9745;50.828;4.378;2022-08-25T04:42:44;6.80;;;3.87;;
19221;SDS011;9745;50.828;4.378;2022-08-25T04:45:10;8.20;;;3.90;;
19221;SDS011;9745;50.828;4.378;2022-08-25T04:47:39;8.17;;;3.73;;
19221;SDS011;9745;50.828;4.378;2022-08-25T04:50:06;5.07;;;3.37;;
19221;SDS011;9745;50.828;4.378;2022-08-25T04:52:32;5.50;;;3.43;;
19221;SDS011;9745;50.828;4.378;2022-08-25T04:54:58;7.67;;;4.30;;
19221;SDS011;9745;50.828;4.378;2022-08-25T04:57:25;7.90;;;3.73;;
19221;SDS011;9745;50.828;4.378;2022-08-25T04:59:52;6.37;;;3.40;;
19221;SDS011;9745;50.828;4.378;2022-08-25T05:02:19;7.07;;;3.87;;
19221;SDS011;9745;50.828;4.378;2022-08-25T05:04:45;11.30;;;3.50;;
19221;SDS011;9745;50.828;4.378;2022-08-25T05:07:11;11.10;;;4.00;;
19221;SDS011;9745;50.828;4.378;2022-08-25T05:09:37;6.03;;;4.03;;
19221;SDS011;9745;50.828;4.378;2022-08-25T05:12:03;5.83;;;3.43;;
19221;SDS011;9745;50.828;4.378;2022-08-25T05:14:30;5.53;;;3.30;;
19221;SDS011;9745;50.828;4.378;2022-08-25T05:16:56;5.87;;;3.17;;
19221;SDS011;9745;50.828;4.378;2022-08-25T05:19:22;6.80;;;3.60;;
19221;SDS011;9745;50.828;4.378;2022-08-25T05:21:49;7.60;;;3.17;;
19221;SDS011;9745;50.828;4.378;2022-08-25T05:24:15;7.50;;;3.47;;
19221;SDS011;9745;50.828;4.378;2022-08-25T05:26:41;4.43;;;2.97;;
19221;SDS011;9745;50.828;4.378;2022-08-25T05:29:07;5.20;;;2.97;;
19221;SDS011;9745;50.828;4.378;2022-08-25T05:31:34;5.70;;;3.10;;
19221;SDS011;9745;50.828;4.378;2022-08-25T05:34:04;4.80;;;3.07;;
19221;SDS011;9745;50.828;4.378;2022-08-25T05:36:30;6.57;;;2.93;;
19221;SDS011;9745;50.828;4.378;2022-08-25T05:38:56;4.40;;;2.67;;
19221;SDS011;9745;50.828;4.378;2022-08-25T05:41:24;6.83;;;3.07;;
19221;SDS011;9745;50.828;4.378;2022-08-25T05:43:51;5.57;;;2.70;;
19221;SDS011;9745;50.828;4.378;2022-08-25T05:46:17;7.43;;;3.17;;
19221;SDS011;9745;50.828;4.378;2022-08-25T05:48:44;5.77;;;2.73;;
19221;SDS011;9745;50.828;4.378;2022-08-25T05:51:10;7.13;;;3.27;;
19221;SDS011;9745;50.828;4.378;2022-08-25T05:53:37;7.53;;;3.07;;
19221;SDS011;9745;50.828;4.378;2022-08-25T05:56:04;6.23;;;2.57;;
19221;SDS011;9745;50.828;4.378;2022-08-25T05:58:30;4.10;;;2.47;;
19221;SDS011;9745;50.828;4.378;2022-08-25T06:00:56;8.73;;;2.80;;
19221;SDS011;9745;50.828;4.378;2022-08-25T06:03:43;5.70;;;3.23;;
19221;SDS011;9745;50.828;4.378;2022-08-25T06:06:09;5.47;;;3.37;;
19221;SDS011;9745;50.828;4.378;2022-08-25T06:08:35;4.93;;;3.00;;
19221;SDS011;9745;50.828;4.378;2022-08-25T06:11:01;8.03;;;3.10;;
19221;SDS011;9745;50.828;4.378;2022-08-25T06:13:27;6.47;;;2.90;;
19221;SDS011;9745;50.828;4.378;2022-08-25T06:15:57;4.97;;;3.03;;
19221;SDS011;9745;50.828;4.378;2022-08-25T06:18:23;5.93;;;3.03;;
19221;SDS011;9745;50.828;4.378;2022-08-25T06:20:49;5.30;;;3.13;;
19221;SDS011;9745;50.828;4.378;2022-08-25T06:23:15;7.53;;;2.90;;
19221;SDS011;9745;50.828;4.378;2022-08-25T06:25:48;5.83;;;2.70;;
19221;SDS011;9745;50.828;4.378;2022-08-25T06:28:14;7.43;;;3.20;;
19221;SDS011;9745;50.828;4.378;2022-08-25T06:30:40;7.03;;;3.07;;
19221;SDS011;9745;50.828;4.378;2022-08-25T06:33:07;5.67;;;2.80;;
19221;SDS011;9745;50.828;4.378;2022-08-25T06:35:33;9.40;;;3.03;;
19221;SDS011;9745;50.828;4.378;2022-08-25T06:37:59;7.67;;;2.67;;
19221;SDS011;9745;50.828;4.378;2022-08-25T06:40:25;9.20;;;2.70;;
19221;SDS011;9745;50.828;4.378;2022-08-25T06:42:51;9.17;;;3.37;;
19221;SDS011;9745;50.828;4.378;2022-08-25T06:45:17;8.63;;;3.23;;
19221;SDS011;9745;50.828;4.378;2022-08-25T06:47:43;9.97;;;2.77;;
19221;SDS011;9745;50.828;4.378;2022-08-25T06:50:09;10.63;;;3.07;;
19221;SDS011;9745;50.828;4.378;2022-08-25T06:52:36;6.03;;;2.73;;
19221;SDS011;9745;50.828;4.378;2022-08-25T06:55:02;8.83;;;3.03;;
19221;SDS011;9745;50.828;4.378;2022-08-25T06:57:28;6.63;;;3.13;;
19221;SDS011;9745;50.828;4.378;2022-08-25T06:59:58;8.77;;;2.53;;
19221;SDS011;9745;50.828;4.378;2022-08-25T07:02:24;5.00;;;2.53;;
19221;SDS011;9745;50.828;4.378;2022-08-25T07:04:50;7.13;;;2.90;;
19221;SDS011;9745;50.828;4.378;2022-08-25T07:07:17;5.27;;;2.60;;
19221;SDS011;9745;50.828;4.378;2022-08-25T07:09:43;7.47;;;2.70;;
19221;SDS011;9745;50.828;4.378;2022-08-25T07:12:09;7.93;;;2.10;;
19221;SDS011;9745;50.828;4.378;2022-08-25T07:14:35;5.30;;;2.60;;
19221;SDS011;9745;50.828;4.378;2022-08-25T07:17:02;4.73;;;2.40;;
19221;SDS011;9745;50.828;4.378;2022-08-25T07:19:28;4.40;;;2.40;;
19221;SDS011;9745;50.828;4.378;2022-08-25T07:21:54;7.03;;;2.33;;
19221;SDS011;9745;50.828;4.378;2022-08-25T07:24:20;7.23;;;3.13;;
19221;SDS011;9745;50.828;4.378;2022-08-25T07:26:47;15.07;;;9.47;;
19221;SDS011;9745;50.828;4.378;2022-08-25T07:29:23;7.67;;;4.00;;
19221;SDS011;9745;50.828;4.378;2022-08-25T07:31:49;8.77;;;3.63;;
19221;SDS011;9745;50.828;4.378;2022-08-25T07:34:15;10.10;;;2.80;;
19221;SDS011;9745;50.828;4.378;2022-08-25T07:37:00;5.37;;;2.90;;
19221;SDS011;9745;50.828;4.378;2022-08-25T07:39:28;12.70;;;3.30;;
19221;SDS011;9745;50.828;4.378;2022-08-25T07:41:55;10.07;;;2.97;;
19221;SDS011;9745;50.828;4.378;2022-08-25T07:44:21;6.67;;;2.53;;
19221;SDS011;9745;50.828;4.378;2022-08-25T07:46:48;5.60;;;2.23;;
19221;SDS011;9745;50.828;4.378;2022-08-25T07:49:14;5.90;;;2.10;;
19221;SDS011;9745;50.828;4.378;2022-08-25T07:51:40;9.70;;;4.77;;
19221;SDS011;9745;50.828;4.378;2022-08-25T07:54:07;7.20;;;2.63;;
19221;SDS011;9745;50.828;4.378;2022-08-25T07:56:33;6.43;;;2.90;;
19221;SDS011;9745;50.828;4.378;2022-08-25T07:58:59;8.73;;;5.23;;
19221;SDS011;9745;50.828;4.378;2022-08-25T08:01:25;3.40;;;2.60;;
19221;SDS011;9745;50.828;4.378;2022-08-25T08:03:51;6.97;;;2.73;;
19221;SDS011;9745;50.828;4.378;2022-08-25T08:06:19;5.80;;;2.20;;
19221;SDS011;9745;50.828;4.378;2022-08-25T08:08:46;9.43;;;2.10;;
19221;SDS011;9745;50.828;4.378;2022-08-25T08:11:17;4.87;;;2.40;;
19221;SDS011;9745;50.828;4.378;2022-08-25T08:13:43;6.77;;;2.30;;
19221;SDS011;9745;50.828;4.378;2022-08-25T08:16:11;5.20;;;2.17;;
19221;SDS011;9745;50.828;4.378;2022-08-25T08:18:37;7.13;;;2.90;;
19221;SDS011;9745;50.828;4.378;2022-08-25T08:21:04;5.73;;;2.77;;
19221;SDS011;9745;50.828;4.378;2022-08-25T08:23:30;6.60;;;2.20;;
19221;SDS011;9745;50.828;4.378;2022-08-25T08:25:56;4.27;;;2.30;;
19221;SDS011;9745;50.828;4.378;2022-08-25T08:28:22;6.25;;;2.85;;
19221;SDS011;9745;50.828;4.378;2022-08-25T08:30:51;4.80;;;2.60;;
19221;SDS011;9745;50.828;4.378;2022-08-25T08:33:17;4.77;;;2.27;;
19221;SDS011;9745;50.828;4.378;2022-08-25T08:35:43;4.83;;;1.90;;
19221;SDS011;9745;50.828;4.378;2022-08-25T08:38:10;5.13;;;2.50;;
19221;SDS011;9745;50.828;4.378;2022-08-25T08:40:38;8.23;;;2.47;;
19221;SDS011;9745;50.828;4.378;2022-08-25T08:43:08;6.13;;;2.17;;
19221;SDS011;9745;50.828;4.378;2022-08-25T08:45:35;3.40;;;2.20;;
19221;SDS011;9745;50.828;4.378;2022-08-25T08:55:49;5.20;;;2.13;;
19221;SDS011;9745;50.828;4.378;2022-08-25T08:58:21;4.27;;;2.83;;
19221;SDS011;9745;50.828;4.378;2022-08-25T09:00:51;8.17;;;2.33;;
19221;SDS011;9745;50.828;4.378;2022-08-25T09:03:32;3.37;;;2.30;;
19221;SDS011;9745;50.828;4.378;2022-08-25T09:06:08;7.47;;;2.03;;
19221;SDS011;9745;50.828;4.378;2022-08-25T09:08:35;5.03;;;2.00;;
19221;SDS011;9745;50.828;4.378;2022-08-25T09:11:06;4.77;;;2.30;;
19221;SDS011;9745;50.828;4.378;2022-08-25T09:14:20;3.00;;;1.83;;
19221;SDS011;9745;50.828;4.378;2022-08-25T09:16:29;5.10;;;2.13;;
19221;SDS011;9745;50.828;4.378;2022-08-25T09:22:05;3.93;;;2.13;;
19221;SDS011;9745;50.828;4.378;2022-08-25T09:29:26;4.33;;;1.93;;
19221;SDS011;9745;50.828;4.378;2022-08-25T09:31:55;5.30;;;2.07;;
19221;SDS011;9745;50.828;4.378;2022-08-25T09:34:23;5.00;;;2.07;;
19221;SDS011;9745;50.828;4.378;2022-08-25T09:36:53;3.47;;;1.80;;
19221;SDS011;9745;50.828;4.378;2022-08-25T09:39:21;9.33;;;2.17;;
19221;SDS011;9745;50.828;4.378;2022-08-25T09:41:51;5.77;;;1.70;;
19221;SDS011;9745;50.828;4.378;2022-08-25T09:44:24;2.57;;;1.93;;
19221;SDS011;9745;50.828;4.378;2022-08-25T09:46:54;3.43;;;2.33;;
19221;SDS011;9745;50.828;4.378;2022-08-25T09:49:21;5.70;;;3.47;;
19221;SDS011;9745;50.828;4.378;2022-08-25T09:51:55;6.13;;;1.93;;
19221;SDS011;9745;50.828;4.378;2022-08-25T09:54:40;4.97;;;2.30;;
19221;SDS011;9745;50.828;4.378;2022-08-25T09:57:07;4.73;;;2.10;;
19221;SDS011;9745;50.828;4.378;2022-08-25T09:59:34;5.33;;;2.00;;
19221;SDS011;9745;50.828;4.378;2022-08-25T10:02:05;4.97;;;2.27;;
19221;SDS011;9745;50.828;4.378;2022-08-25T10:04:45;6.77;;;2.07;;
19221;SDS011;9745;50.828;4.378;2022-08-25T10:07:28;6.47;;;2.13;;
19221;SDS011;9745;50.828;4.378;2022-08-25T10:09:57;10.27;;;2.37;;
19221;SDS011;9745;50.828;4.378;2022-08-25T10:14:55;4.23;;;1.80;;
19221;SDS011;9745;50.828;4.378;2022-08-25T10:17:31;2.83;;;1.97;;
19221;SDS011;9745;50.828;4.378;2022-08-25T10:22:36;4.30;;;2.40;;
19221;SDS011;9745;50.828;4.378;2022-08-25T10:25:03;3.20;;;1.57;;
19221;SDS011;9745;50.828;4.378;2022-08-25T10:27:50;4.43;;;2.03;;
19221;SDS011;9745;50.828;4.378;2022-08-25T10:30:19;3.75;;;1.80;;
19221;SDS011;9745;50.828;4.378;2022-08-25T10:38:10;6.45;;;2.05;;
19221;SDS011;9745;50.828;4.378;2022-08-25T10:40:47;2.45;;;1.50;;
19221;SDS011;9745;50.828;4.378;2022-08-25T10:48:38;4.07;;;2.50;;
19221;SDS011;9745;50.828;4.378;2022-08-25T10:56:03;3.58;;;2.30;;
19221;SDS011;9745;50.828;4.378;2022-08-25T11:01:00;5.38;;;1.80;;
19221;SDS011;9745;50.828;4.378;2022-08-25T11:03:34;3.78;;;1.63;;
19221;SDS011;9745;50.828;4.378;2022-08-25T11:06:18;6.20;;;2.00;;
19221;SDS011;9745;50.828;4.378;2022-08-25T11:11:23;2.83;;;1.75;;
19221;SDS011;9745;50.828;4.378;2022-08-25T11:13:52;3.95;;;1.65;;
19221;SDS011;9745;50.828;4.378;2022-08-25T11:16:39;3.15;;;1.67;;
19221;SDS011;9745;50.828;4.378;2022-08-25T11:24:12;3.38;;;2.13;;
19221;SDS011;9745;50.828;4.378;2022-08-25T11:26:39;3.53;;;2.20;;
19221;SDS011;9745;50.828;4.378;2022-08-25T11:31:36;5.97;;;1.90;;
19221;SDS011;9745;50.828;4.378;2022-08-25T11:34:03;4.35;;;2.08;;
19221;SDS011;9745;50.828;4.378;2022-08-25T11:36:30;5.00;;;1.80;;
19221;SDS011;9745;50.828;4.378;2022-08-25T11:39:03;4.05;;;1.90;;
19221;SDS011;9745;50.828;4.378;2022-08-25T11:41:36;3.20;;;2.08;;
19221;SDS011;9745;50.828;4.378;2022-08-25T11:51:56;3.65;;;2.05;;
19221;SDS011;9745;50.828;4.378;2022-08-25T11:54:29;4.38;;;2.05;;
19221;SDS011;9745;50.828;4.378;2022-08-25T11:57:05;2.75;;;1.77;;
19221;SDS011;9745;50.828;4.378;2022-08-25T12:02:36;3.33;;;1.83;;
19221;SDS011;9745;50.828;4.378;2022-08-25T12:05:08;7.07;;;1.85;;
19221;SDS011;9745;50.828;4.378;2022-08-25T12:15:22;5.47;;;2.25;;
19221;SDS011;9745;50.828;4.378;2022-08-25T12:25:59;4.30;;;1.52;;
19221;SDS011;9745;50.828;4.378;2022-08-25T12:30:56;3.15;;;1.60;;
19221;SDS011;9745;50.828;4.378;2022-08-25T12:36:00;4.40;;;1.55;;
19221;SDS011;9745;50.828;4.378;2022-08-25T12:40:56;3.10;;;1.70;;
19221;SDS011;9745;50.828;4.378;2022-08-25T12:43:39;2.88;;;1.55;;
19221;SDS011;9745;50.828;4.378;2022-08-25T12:46:55;5.72;;;1.80;;
19221;SDS011;9745;50.828;4.378;2022-08-25T12:48:54;3.45;;;1.90;;
19221;SDS011;9745;50.828;4.378;2022-08-25T12:51:22;4.70;;;2.15;;
19221;SDS011;9745;50.828;4.378;2022-08-25T12:53:52;4.65;;;2.00;;
19221;SDS011;9745;50.828;4.378;2022-08-25T12:56:26;3.40;;;2.30;;
19221;SDS011;9745;50.828;4.378;2022-08-25T13:12:21;1.92;;;1.50;;
19221;SDS011;9745;50.828;4.378;2022-08-25T13:14:55;3.15;;;1.70;;
19221;SDS011;9745;50.828;4.378;2022-08-25T13:17:40;2.85;;;1.77;;
19221;SDS011;9745;50.828;4.378;2022-08-25T13:20:21;4.03;;;1.52;;
19221;SDS011;9745;50.828;4.378;2022-08-25T13:22:49;4.45;;;1.80;;
19221;SDS011;9745;50.828;4.378;2022-08-25T13:25:16;4.95;;;1.70;;
19221;SDS011;9745;50.828;4.378;2022-08-25T13:27:46;4.07;;;1.70;;
19221;SDS011;9745;50.828;4.378;2022-08-25T13:30:24;3.22;;;1.67;;
19221;SDS011;9745;50.828;4.378;2022-08-25T13:32:50;6.45;;;2.00;;
19221;SDS011;9745;50.828;4.378;2022-08-25T13:35:17;2.95;;;2.05;;
19221;SDS011;9745;50.828;4.378;2022-08-25T13:37:44;5.28;;;2.30;;
19221;SDS011;9745;50.828;4.378;2022-08-25T13:42:40;3.08;;;2.05;;
19221;SDS011;9745;50.828;4.378;2022-08-25T13:45:06;3.75;;;2.05;;
19221;SDS011;9745;50.828;4.378;2022-08-25T13:47:37;4.68;;;2.20;;
19221;SDS011;9745;50.828;4.378;2022-08-25T13:55:35;3.90;;;1.73;;
19221;SDS011;9745;50.828;4.378;2022-08-25T13:58:02;7.03;;;2.13;;
19221;SDS011;9745;50.828;4.378;2022-08-25T14:00:30;5.47;;;2.10;;
19221;SDS011;9745;50.828;4.378;2022-08-25T14:02:58;5.38;;;2.42;;
19221;SDS011;9745;50.828;4.378;2022-08-25T14:05:32;8.38;;;2.20;;
19221;SDS011;9745;50.828;4.378;2022-08-25T14:07:59;3.90;;;1.98;;
19221;SDS011;9745;50.828;4.378;2022-08-25T14:10:37;8.05;;;3.30;;
19221;SDS011;9745;50.828;4.378;2022-08-25T14:13:08;9.20;;;4.57;;
19221;SDS011;9745;50.828;4.378;2022-08-25T14:15:35;17.48;;;4.88;;
19221;SDS011;9745;50.828;4.378;2022-08-25T14:20:29;9.95;;;4.13;;
19221;SDS011;9745;50.828;4.378;2022-08-25T14:22:56;16.00;;;4.53;;
19221;SDS011;9745;50.828;4.378;2022-08-25T14:25:23;13.40;;;4.00;;
19221;SDS011;9745;50.828;4.378;2022-08-25T14:27:53;14.18;;;4.82;;
19221;SDS011;9745;50.828;4.378;2022-08-25T14:30:20;14.65;;;4.40;;
19221;SDS011;9745;50.828;4.378;2022-08-25T14:32:46;12.43;;;4.40;;
19221;SDS011;9745;50.828;4.378;2022-08-25T14:35:12;10.98;;;3.65;;
19221;SDS011;9745;50.828;4.378;2022-08-25T14:37:38;10.63;;;4.30;;
19221;SDS011;9745;50.828;4.378;2022-08-25T14:40:04;11.68;;;4.65;;
19221;SDS011;9745;50.828;4.378;2022-08-25T14:42:30;9.55;;;4.45;;
19221;SDS011;9745;50.828;4.378;2022-08-25T14:44:56;8.57;;;4.30;;
19221;SDS011;9745;50.828;4.378;2022-08-25T14:47:22;7.38;;;4.07;;
19221;SDS011;9745;50.828;4.378;2022-08-25T14:49:49;9.23;;;3.95;;
19221;SDS011;9745;50.828;4.378;2022-08-25T14:52:17;11.23;;;3.50;;
19221;SDS011;9745;50.828;4.378;2022-08-25T14:54:44;8.20;;;3.63;;
19221;SDS011;9745;50.828;4.378;2022-08-25T14:57:10;11.70;;;3.60;;
19221;SDS011;9745;50.828;4.378;2022-08-25T14:59:37;7.27;;;3.50;;
19221;SDS011;9745;50.828;4.378;2022-08-25T15:02:04;9.73;;;3.90;;
19221;SDS011;9745;50.828;4.378;2022-08-25T15:04:32;9.45;;;3.88;;
19221;SDS011;9745;50.828;4.378;2022-08-25T15:06:59;7.17;;;3.77;;
19221;SDS011;9745;50.828;4.378;2022-08-25T15:09:46;8.53;;;3.33;;
19221;SDS011;9745;50.828;4.378;2022-08-25T15:12:12;11.53;;;3.53;;
19221;SDS011;9745;50.828;4.378;2022-08-25T15:14:38;5.90;;;3.30;;
19221;SDS011;9745;50.828;4.378;2022-08-25T15:17:04;7.47;;;3.20;;
19221;SDS011;9745;50.828;4.378;2022-08-25T15:19:32;10.80;;;3.93;;
19221;SDS011;9745;50.828;4.378;2022-08-25T15:21:58;9.98;;;4.70;;
19221;SDS011;9745;50.828;4.378;2022-08-25T15:24:25;8.15;;;4.75;;
19221;SDS011;9745;50.828;4.378;2022-08-25T15:26:52;11.82;;;5.10;;
19221;SDS011;9745;50.828;4.378;2022-08-25T15:29:19;9.82;;;5.90;;
19221;SDS011;9745;50.828;4.378;2022-08-25T15:31:46;13.93;;;6.90;;
19221;SDS011;9745;50.828;4.378;2022-08-25T15:34:12;13.80;;;7.27;;
19221;SDS011;9745;50.828;4.378;2022-08-25T15:36:38;12.90;;;8.20;;
19221;SDS011;9745;50.828;4.378;2022-08-25T15:39:04;13.27;;;7.07;;
19221;SDS011;9745;50.828;4.378;2022-08-25T15:41:31;14.73;;;8.38;;
19221;SDS011;9745;50.828;4.378;2022-08-25T15:43:58;11.13;;;8.00;;
19221;SDS011;9745;50.828;4.378;2022-08-25T15:46:24;9.43;;;7.50;;
19221;SDS011;9745;50.828;4.378;2022-08-25T15:48:53;9.23;;;6.97;;
19221;SDS011;9745;50.828;4.378;2022-08-25T15:51:19;11.80;;;7.73;;
19221;SDS011;9745;50.828;4.378;2022-08-25T15:53:45;11.37;;;6.47;;
19221;SDS011;9745;50.828;4.378;2022-08-25T15:56:11;13.30;;;8.67;;
19221;SDS011;9745;50.828;4.378;2022-08-25T15:58:41;10.83;;;7.37;;
19221;SDS011;9745;50.828;4.378;2022-08-25T16:01:15;13.93;;;8.90;;
19221;SDS011;9745;50.828;4.378;2022-08-25T16:03:42;10.70;;;7.83;;
19221;SDS011;9745;50.828;4.378;2022-08-25T16:06:08;11.83;;;8.60;;
19221;SDS011;9745;50.828;4.378;2022-08-25T16:08:34;10.70;;;7.90;;
19221;SDS011;9745;50.828;4.378;2022-08-25T16:11:01;9.97;;;7.90;;
19221;SDS011;9745;50.828;4.378;2022-08-25T16:13:27;10.27;;;7.40;;
19221;SDS011;9745;50.828;4.378;2022-08-25T16:15:53;8.97;;;6.90;;
19221;SDS011;9745;50.828;4.378;2022-08-25T16:18:23;10.63;;;7.10;;
19221;SDS011;9745;50.828;4.378;2022-08-25T16:20:49;11.30;;;6.77;;
19221;SDS011;9745;50.828;4.378;2022-08-25T16:23:16;7.77;;;5.40;;
19221;SDS011;9745;50.828;4.378;2022-08-25T16:25:43;12.23;;;7.23;;
19221;SDS011;9745;50.828;4.378;2022-08-25T16:28:10;9.83;;;6.93;;
19221;SDS011;9745;50.828;4.378;2022-08-25T16:30:36;12.43;;;8.37;;
19221;SDS011;9745;50.828;4.378;2022-08-25T16:33:04;10.33;;;6.83;;
19221;SDS011;9745;50.828;4.378;2022-08-25T16:35:30;10.03;;;7.90;;
19221;SDS011;9745;50.828;4.378;2022-08-25T16:37:56;17.67;;;10.07;;
19221;SDS011;9745;50.828;4.378;2022-08-25T16:40:23;16.53;;;10.97;;
19221;SDS011;9745;50.828;4.378;2022-08-25T16:42:51;12.07;;;9.43;;
19221;SDS011;9745;50.828;4.378;2022-08-25T16:45:17;16.03;;;10.30;;
19221;SDS011;9745;50.828;4.378;2022-08-25T16:47:44;20.30;;;11.17;;
19221;SDS011;9745;50.828;4.378;2022-08-25T16:50:10;16.93;;;10.30;;